This is the latest recevied weather packets stored in our database for station/object KC5TIL. If no packets are shown the sender has not sent any weather packets the latest 10 day(s).
| Time | Temp. | Humidity | Pressure | Rain* | Wind** | Luminosity | Snow |
|---|---|---|---|---|---|---|---|
| 1777734611 | 18.89° C | 64% | 1023.8 hPa | 0 mm | - | 608 W/m² | - |
| 1777734308 | 18.89° C | 64% | 1023.6 hPa | 0 mm | - | 586 W/m² | - |
| 1777734004 | 18.89° C | 65% | 1023.7 hPa | 0 mm | - | 569 W/m² | - |
| 1777733701 | 18.89° C | 66% | 1023.6 hPa | 0 mm | - | 547 W/m² | - |
| 1777733397 | 18.89° C | 67% | 1023.5 hPa | 0 mm | - | 527 W/m² | - |
| 1777733094 | 18.33° C | 70% | 1023.5 hPa | 0 mm | - | 501 W/m² | - |
| 1777732790 | 18.33° C | 67% | 1023.5 hPa | 0 mm | - | 472 W/m² | - |
| 1777732487 | 17.78° C | 70% | 1023.4 hPa | 0 mm | - | 416 W/m² | - |
| 1777732185 | 17.22° C | 71% | 1023.7 hPa | 0 mm | - | 405 W/m² | - |
| 1777731882 | 17.22° C | 71% | 1023.7 hPa | 0 mm | - | 337 W/m² | - |
| 1777731578 | 17.22° C | 70% | 1023.7 hPa | 0 mm | - | 290 W/m² | - |
| 1777731277 | 17.22° C | 71% | 1023.4 hPa | 0 mm | - | 311 W/m² | - |
| 1777730973 | 16.67° C | 72% | 1023.7 hPa | 0 mm | - | 299 W/m² | - |
| 1777730672 | 16.67° C | 72% | 1023.5 hPa | 0 mm | - | 288 W/m² | - |
| 1777730367 | 16.11° C | 74% | 1023.5 hPa | 0 mm | - | 278 W/m² | - |
| 1777730064 | 16.11° C | 74% | 1023.4 hPa | 0 mm | - | 263 W/m² | - |
| 1777729760 | 15.56° C | 74% | 1023.5 hPa | 0 mm | - | 229 W/m² | - |
| 1777729457 | 15.56° C | 76% | 1023.4 hPa | 0 mm | - | 215 W/m² | - |
| 1777729154 | 15.56° C | 76% | 1023.3 hPa | 0 mm | - | 198 W/m² | - |
| 1777728851 | 15.56° C | 76% | 1023.4 hPa | 0 mm | - | 179 W/m² | - |
| 1777728548 | 15° C | 76% | 1023.3 hPa | 0 mm | - | 167 W/m² | - |
| 1777728245 | 16.11° C | 74% | 1023.4 hPa | 0 mm | - | 152 W/m² | - |
| 1777727942 | 15.56° C | 75% | 1023.4 hPa | 0 mm | - | 139 W/m² | - |
| 1777727639 | 15.56° C | 77% | 1023.4 hPa | 0 mm | - | 130 W/m² | - |
| 1777727336 | 15° C | 78% | 1023.4 hPa | 0 mm | - | 111 W/m² | - |
* Rain latest hour (hover to see other rain measurements)
** Current wind speed in m/s (hover to see current wind gust speed)